METAR Data

Data at: 0104 UTC 23 Mar 2019

METAR for:KFOK (Westhampton/Gabreski, NY, US)
Text:KFOK 230053Z 28016G23KT 10SM OVC085 07/M03 A2941 RMK AO2 SLP959 T00721033
Temperature: 7.2°C ( 45°F)
Dewpoint: -3.3°C ( 26°F) [RH = 47%]
Pressure (altimeter):29.41 inches Hg ( 996.0 mb) [Sea level pressure: 995.9 mb]
Winds:from the W (280 degrees) at 18 MPH (16 knots; 8.2 m/s) gusting to 26 MPH (23 knots; 11.8 m/s)
Visibility:10 or more sm (16+ km)
Ceiling:8500 feet AGL
Clouds: overcast cloud deck at 8500 feet AGL